sensor_id;sensor_type;location;lat;lon;timestamp;pressure;altitude;pressure_sealevel;temperature;humidity
36222;BME280;22266;52.340;4.962;2023-04-15T00:01:48;100878.94;;;11.52;51.85
36222;BME280;22266;52.340;4.962;2023-04-15T00:04:15;100881.41;;;11.47;51.72
36222;BME280;22266;52.340;4.962;2023-04-15T00:06:41;100879.69;;;11.39;51.88
36222;BME280;22266;52.340;4.962;2023-04-15T00:09:08;100879.25;;;11.35;51.79
36222;BME280;22266;52.340;4.962;2023-04-15T00:11:34;100874.91;;;11.34;52.18
36222;BME280;22266;52.340;4.962;2023-04-15T00:14:01;100875.47;;;11.30;52.12
36222;BME280;22266;52.340;4.962;2023-04-15T00:16:27;100873.22;;;11.33;52.23
36222;BME280;22266;52.340;4.962;2023-04-15T00:18:54;100881.31;;;11.33;52.11
36222;BME280;22266;52.340;4.962;2023-04-15T00:21:20;100879.44;;;11.34;51.59
36222;BME280;22266;52.340;4.962;2023-04-15T00:23:47;100883.41;;;11.38;51.83
36222;BME280;22266;52.340;4.962;2023-04-15T00:26:17;100875.31;;;11.38;51.46
36222;BME280;22266;52.340;4.962;2023-04-15T00:28:46;100880.53;;;11.39;51.69
36222;BME280;22266;52.340;4.962;2023-04-15T00:31:12;100877.16;;;11.31;52.13
36222;BME280;22266;52.340;4.962;2023-04-15T00:33:39;100878.00;;;11.31;52.23
36222;BME280;22266;52.340;4.962;2023-04-15T00:36:06;100879.06;;;11.37;52.35
36222;BME280;22266;52.340;4.962;2023-04-15T00:38:32;100876.75;;;11.34;52.01
36222;BME280;22266;52.340;4.962;2023-04-15T00:40:59;100873.44;;;11.32;52.24
36222;BME280;22266;52.340;4.962;2023-04-15T00:43:25;100873.81;;;11.29;52.57
36222;BME280;22266;52.340;4.962;2023-04-15T00:45:53;100878.63;;;11.33;52.84
36222;BME280;22266;52.340;4.962;2023-04-15T00:48:21;100880.84;;;11.23;52.29
36222;BME280;22266;52.340;4.962;2023-04-15T00:50:48;100879.34;;;11.14;52.62
36222;BME280;22266;52.340;4.962;2023-04-15T00:53:14;100881.63;;;11.17;52.81
36222;BME280;22266;52.340;4.962;2023-04-15T00:55:41;100887.44;;;11.14;52.72
36222;BME280;22266;52.340;4.962;2023-04-15T00:58:07;100888.03;;;11.16;53.61
36222;BME280;22266;52.340;4.962;2023-04-15T01:00:34;100882.66;;;11.16;52.91
36222;BME280;22266;52.340;4.962;2023-04-15T01:03:01;100886.38;;;11.15;52.99
36222;BME280;22266;52.340;4.962;2023-04-15T01:05:29;100885.28;;;11.09;52.73
36222;BME280;22266;52.340;4.962;2023-04-15T01:07:56;100880.75;;;11.10;53.00
36222;BME280;22266;52.340;4.962;2023-04-15T01:10:23;100886.78;;;11.12;53.35
36222;BME280;22266;52.340;4.962;2023-04-15T01:12:49;100880.34;;;11.13;53.58
36222;BME280;22266;52.340;4.962;2023-04-15T01:15:16;100885.34;;;11.16;53.63
36222;BME280;22266;52.340;4.962;2023-04-15T01:17:43;100880.13;;;11.08;53.84
36222;BME280;22266;52.340;4.962;2023-04-15T01:20:10;100883.63;;;11.08;53.78
36222;BME280;22266;52.340;4.962;2023-04-15T01:22:37;100882.59;;;11.09;53.96
36222;BME280;22266;52.340;4.962;2023-04-15T01:25:11;100885.72;;;11.06;53.96
36222;BME280;22266;52.340;4.962;2023-04-15T01:27:41;100886.09;;;11.03;54.26
36222;BME280;22266;52.340;4.962;2023-04-15T01:30:08;100885.41;;;10.95;54.31
36222;BME280;22266;52.340;4.962;2023-04-15T01:32:36;100884.31;;;10.89;54.60
36222;BME280;22266;52.340;4.962;2023-04-15T01:35:03;100885.56;;;10.86;55.19
36222;BME280;22266;52.340;4.962;2023-04-15T01:37:30;100884.75;;;10.93;55.49
36222;BME280;22266;52.340;4.962;2023-04-15T01:39:57;100897.19;;;10.94;55.22
36222;BME280;22266;52.340;4.962;2023-04-15T01:42:24;100889.53;;;10.91;55.54
36222;BME280;22266;52.340;4.962;2023-04-15T01:44:50;100886.97;;;10.82;55.86
36222;BME280;22266;52.340;4.962;2023-04-15T01:47:17;100890.44;;;10.76;55.63
36222;BME280;22266;52.340;4.962;2023-04-15T01:49:43;100897.59;;;10.69;56.33
36222;BME280;22266;52.340;4.962;2023-04-15T01:52:10;100893.09;;;10.70;56.80
36222;BME280;22266;52.340;4.962;2023-04-15T01:54:38;100896.41;;;10.72;56.89
36222;BME280;22266;52.340;4.962;2023-04-15T01:57:05;100899.03;;;10.65;56.63
36222;BME280;22266;52.340;4.962;2023-04-15T01:59:31;100899.22;;;10.63;57.22
36222;BME280;22266;52.340;4.962;2023-04-15T02:01:58;100905.00;;;10.60;57.90
36222;BME280;22266;52.340;4.962;2023-04-15T02:04:26;100893.59;;;10.58;58.37
36222;BME280;22266;52.340;4.962;2023-04-15T02:06:53;100889.81;;;10.53;58.13
36222;BME280;22266;52.340;4.962;2023-04-15T02:09:20;100903.38;;;10.45;59.25
36222;BME280;22266;52.340;4.962;2023-04-15T02:11:46;100899.03;;;10.44;59.71
36222;BME280;22266;52.340;4.962;2023-04-15T02:14:13;100903.13;;;10.39;60.10
36222;BME280;22266;52.340;4.962;2023-04-15T02:16:39;100899.53;;;10.32;59.75
36222;BME280;22266;52.340;4.962;2023-04-15T02:19:06;100908.09;;;10.21;59.55
36222;BME280;22266;52.340;4.962;2023-04-15T02:21:36;100905.31;;;10.14;60.10
36222;BME280;22266;52.340;4.962;2023-04-15T02:24:02;100909.41;;;10.10;60.51
36222;BME280;22266;52.340;4.962;2023-04-15T02:26:29;100905.06;;;10.09;60.18
36222;BME280;22266;52.340;4.962;2023-04-15T02:28:58;100908.75;;;10.08;59.59
36222;BME280;22266;52.340;4.962;2023-04-15T02:31:25;100905.91;;;10.10;60.92
36222;BME280;22266;52.340;4.962;2023-04-15T02:33:51;100908.38;;;10.11;60.39
36222;BME280;22266;52.340;4.962;2023-04-15T02:36:18;100912.31;;;10.09;60.34
36222;BME280;22266;52.340;4.962;2023-04-15T02:38:46;100916.66;;;10.10;60.25
36222;BME280;22266;52.340;4.962;2023-04-15T02:41:14;100923.50;;;10.12;60.41
36222;BME280;22266;52.340;4.962;2023-04-15T02:43:42;100927.47;;;10.16;60.71
36222;BME280;22266;52.340;4.962;2023-04-15T02:46:11;100926.84;;;10.14;59.71
36222;BME280;22266;52.340;4.962;2023-04-15T02:48:40;100938.34;;;10.08;60.25
36222;BME280;22266;52.340;4.962;2023-04-15T02:51:15;100936.88;;;10.06;59.46
36222;BME280;22266;52.340;4.962;2023-04-15T02:53:42;100934.75;;;10.01;60.27
36222;BME280;22266;52.340;4.962;2023-04-15T02:56:08;100944.28;;;10.04;60.89
36222;BME280;22266;52.340;4.962;2023-04-15T02:58:35;100945.78;;;10.06;60.61
36222;BME280;22266;52.340;4.962;2023-04-15T03:01:01;100944.75;;;10.07;60.86
36222;BME280;22266;52.340;4.962;2023-04-15T03:03:28;100948.09;;;10.09;60.43
36222;BME280;22266;52.340;4.962;2023-04-15T03:05:55;100942.91;;;10.08;60.39
36222;BME280;22266;52.340;4.962;2023-04-15T03:08:22;100951.38;;;10.05;60.65
36222;BME280;22266;52.340;4.962;2023-04-15T03:10:49;100944.84;;;9.99;60.43
36222;BME280;22266;52.340;4.962;2023-04-15T03:13:18;100949.59;;;9.97;61.11
36222;BME280;22266;52.340;4.962;2023-04-15T03:15:48;100955.25;;;10.02;61.59
36222;BME280;22266;52.340;4.962;2023-04-15T03:18:14;100953.84;;;10.06;61.60
36222;BME280;22266;52.340;4.962;2023-04-15T03:20:41;100959.31;;;10.13;60.90
36222;BME280;22266;52.340;4.962;2023-04-15T03:23:08;100967.09;;;10.08;61.81
36222;BME280;22266;52.340;4.962;2023-04-15T03:25:34;100961.47;;;10.03;61.59
36222;BME280;22266;52.340;4.962;2023-04-15T03:28:04;100968.78;;;9.94;62.41
36222;BME280;22266;52.340;4.962;2023-04-15T03:30:31;100965.28;;;9.94;62.27
36222;BME280;22266;52.340;4.962;2023-04-15T03:32:58;100964.81;;;9.90;62.65
36222;BME280;22266;52.340;4.962;2023-04-15T03:35:25;100976.88;;;9.94;63.00
36222;BME280;22266;52.340;4.962;2023-04-15T03:37:51;100974.38;;;9.93;62.82
36222;BME280;22266;52.340;4.962;2023-04-15T03:40:17;100977.78;;;9.86;62.62
36222;BME280;22266;52.340;4.962;2023-04-15T03:42:44;100980.38;;;9.80;63.11
36222;BME280;22266;52.340;4.962;2023-04-15T03:45:10;100989.31;;;9.80;63.72
36222;BME280;22266;52.340;4.962;2023-04-15T03:47:37;100977.31;;;9.83;63.94
36222;BME280;22266;52.340;4.962;2023-04-15T03:50:04;100984.84;;;9.87;63.63
36222;BME280;22266;52.340;4.962;2023-04-15T03:52:30;100987.53;;;9.87;64.08
36222;BME280;22266;52.340;4.962;2023-04-15T03:54:57;100991.25;;;9.86;64.05
36222;BME280;22266;52.340;4.962;2023-04-15T03:57:23;100997.81;;;9.84;63.89
36222;BME280;22266;52.340;4.962;2023-04-15T03:59:49;100984.09;;;9.79;64.32
36222;BME280;22266;52.340;4.962;2023-04-15T04:02:16;100999.19;;;9.80;64.29
36222;BME280;22266;52.340;4.962;2023-04-15T04:04:43;101003.38;;;9.82;64.23
36222;BME280;22266;52.340;4.962;2023-04-15T04:07:19;101003.94;;;9.78;63.82
36222;BME280;22266;52.340;4.962;2023-04-15T04:09:45;101011.53;;;9.74;64.45
36222;BME280;22266;52.340;4.962;2023-04-15T04:12:12;101006.72;;;9.70;65.06
36222;BME280;22266;52.340;4.962;2023-04-15T04:14:39;101009.78;;;9.66;64.62
36222;BME280;22266;52.340;4.962;2023-04-15T04:17:06;101010.22;;;9.55;65.00
36222;BME280;22266;52.340;4.962;2023-04-15T04:19:32;101022.34;;;9.51;64.84
36222;BME280;22266;52.340;4.962;2023-04-15T04:21:59;101020.97;;;9.40;65.00
36222;BME280;22266;52.340;4.962;2023-04-15T04:24:26;101014.91;;;9.38;65.13
36222;BME280;22266;52.340;4.962;2023-04-15T04:26:52;101030.41;;;9.36;65.40
36222;BME280;22266;52.340;4.962;2023-04-15T04:29:19;101024.47;;;9.41;65.84
36222;BME280;22266;52.340;4.962;2023-04-15T04:31:45;101033.72;;;9.38;65.59
36222;BME280;22266;52.340;4.962;2023-04-15T04:34:14;101037.97;;;9.33;65.57
36222;BME280;22266;52.340;4.962;2023-04-15T04:36:41;101034.81;;;9.29;66.18
36222;BME280;22266;52.340;4.962;2023-04-15T04:39:07;101034.34;;;9.26;65.87
36222;BME280;22266;52.340;4.962;2023-04-15T04:41:34;101045.81;;;9.20;66.37
36222;BME280;22266;52.340;4.962;2023-04-15T04:44:00;101054.38;;;9.15;65.48
36222;BME280;22266;52.340;4.962;2023-04-15T04:46:27;101060.38;;;9.02;66.07
36222;BME280;22266;52.340;4.962;2023-04-15T04:51:45;101062.56;;;8.99;67.14
36222;BME280;22266;52.340;4.962;2023-04-15T04:54:13;101068.41;;;9.02;67.17
36222;BME280;22266;52.340;4.962;2023-04-15T04:56:40;101071.28;;;9.01;66.71
36222;BME280;22266;52.340;4.962;2023-04-15T04:59:06;101079.16;;;9.02;67.31
36222;BME280;22266;52.340;4.962;2023-04-15T05:01:33;101074.13;;;8.99;67.03
36222;BME280;22266;52.340;4.962;2023-04-15T05:04:00;101080.88;;;8.95;67.16
36222;BME280;22266;52.340;4.962;2023-04-15T05:06:26;101093.19;;;8.89;67.24
36222;BME280;22266;52.340;4.962;2023-04-15T05:08:55;101088.81;;;8.88;67.60
36222;BME280;22266;52.340;4.962;2023-04-15T05:11:22;101103.63;;;8.84;67.68
36222;BME280;22266;52.340;4.962;2023-04-15T05:13:48;101104.84;;;8.74;68.29
36222;BME280;22266;52.340;4.962;2023-04-15T05:16:15;101092.97;;;8.68;67.84
36222;BME280;22266;52.340;4.962;2023-04-15T05:18:42;101106.91;;;8.63;68.20
36222;BME280;22266;52.340;4.962;2023-04-15T05:21:08;101113.47;;;8.61;67.93
36222;BME280;22266;52.340;4.962;2023-04-15T05:23:34;101114.81;;;8.57;68.09
36222;BME280;22266;52.340;4.962;2023-04-15T05:26:01;101119.69;;;8.53;68.55
36222;BME280;22266;52.340;4.962;2023-04-15T05:28:27;101128.41;;;8.55;68.42
36222;BME280;22266;52.340;4.962;2023-04-15T05:30:54;101123.34;;;8.60;68.53
36222;BME280;22266;52.340;4.962;2023-04-15T05:33:20;101132.91;;;8.63;68.67
36222;BME280;22266;52.340;4.962;2023-04-15T05:35:47;101139.28;;;8.62;68.92
36222;BME280;22266;52.340;4.962;2023-04-15T05:38:13;101141.00;;;8.55;68.53
36222;BME280;22266;52.340;4.962;2023-04-15T05:40:40;101141.00;;;8.55;69.18
36222;BME280;22266;52.340;4.962;2023-04-15T05:43:06;101152.34;;;8.65;69.16
36222;BME280;22266;52.340;4.962;2023-04-15T05:45:33;101146.78;;;8.66;68.34
36222;BME280;22266;52.340;4.962;2023-04-15T05:47:59;101150.66;;;8.72;68.67
36222;BME280;22266;52.340;4.962;2023-04-15T05:50:25;101150.94;;;8.77;68.29
36222;BME280;22266;52.340;4.962;2023-04-15T05:52:52;101155.25;;;8.86;68.39
36222;BME280;22266;52.340;4.962;2023-04-15T05:55:18;101168.16;;;8.91;68.14
36222;BME280;22266;52.340;4.962;2023-04-15T05:57:45;101172.06;;;8.88;68.77
36222;BME280;22266;52.340;4.962;2023-04-15T06:00:12;101180.25;;;8.87;68.51
36222;BME280;22266;52.340;4.962;2023-04-15T06:02:39;101180.75;;;8.90;68.20
36222;BME280;22266;52.340;4.962;2023-04-15T06:05:07;101187.41;;;9.03;68.67
36222;BME280;22266;52.340;4.962;2023-04-15T06:07:37;101184.03;;;9.09;68.40
36222;BME280;22266;52.340;4.962;2023-04-15T06:10:04;101200.06;;;9.25;68.72
36222;BME280;22266;52.340;4.962;2023-04-15T06:12:31;101206.56;;;9.31;67.56
36222;BME280;22266;52.340;4.962;2023-04-15T06:14:58;101206.22;;;9.34;67.20
36222;BME280;22266;52.340;4.962;2023-04-15T06:17:25;101208.34;;;9.38;67.19
36222;BME280;22266;52.340;4.962;2023-04-15T06:19:52;101222.81;;;9.37;67.29
36222;BME280;22266;52.340;4.962;2023-04-15T06:22:22;101228.38;;;9.36;67.41
36222;BME280;22266;52.340;4.962;2023-04-15T06:24:49;101227.13;;;9.47;67.75
36222;BME280;22266;52.340;4.962;2023-04-15T06:27:16;101233.59;;;9.60;66.65
36222;BME280;22266;52.340;4.962;2023-04-15T06:29:43;101238.09;;;9.60;66.83
36222;BME280;22266;52.340;4.962;2023-04-15T06:32:10;101238.09;;;9.60;66.75
36222;BME280;22266;52.340;4.962;2023-04-15T06:34:37;101246.13;;;9.68;66.99
36222;BME280;22266;52.340;4.962;2023-04-15T06:37:03;101245.59;;;9.73;67.00
36222;BME280;22266;52.340;4.962;2023-04-15T06:39:31;101255.16;;;9.75;66.40
36222;BME280;22266;52.340;4.962;2023-04-15T06:41:58;101253.47;;;9.74;67.12
36222;BME280;22266;52.340;4.962;2023-04-15T06:44:24;101259.69;;;9.75;66.97
36222;BME280;22266;52.340;4.962;2023-04-15T06:46:51;101260.72;;;9.74;67.51
36222;BME280;22266;52.340;4.962;2023-04-15T06:49:17;101252.47;;;9.75;67.31
36222;BME280;22266;52.340;4.962;2023-04-15T06:51:44;101261.16;;;9.85;66.79
36222;BME280;22266;52.340;4.962;2023-04-15T06:54:10;101263.03;;;10.00;67.32
36222;BME280;22266;52.340;4.962;2023-04-15T06:56:37;101278.56;;;10.12;66.08
36222;BME280;22266;52.340;4.962;2023-04-15T06:59:03;101268.66;;;10.13;65.23
36222;BME280;22266;52.340;4.962;2023-04-15T07:01:30;101271.09;;;10.23;65.49
36222;BME280;22266;52.340;4.962;2023-04-15T07:03:56;101274.03;;;10.36;65.18
36222;BME280;22266;52.340;4.962;2023-04-15T07:06:23;101278.78;;;10.49;64.55
36222;BME280;22266;52.340;4.962;2023-04-15T07:08:50;101285.66;;;10.51;64.12
36222;BME280;22266;52.340;4.962;2023-04-15T07:11:16;101290.69;;;10.54;64.36
36222;BME280;22266;52.340;4.962;2023-04-15T07:13:42;101293.53;;;10.53;64.51
36222;BME280;22266;52.340;4.962;2023-04-15T07:16:09;101296.63;;;10.64;64.29
36222;BME280;22266;52.340;4.962;2023-04-15T07:18:35;101296.84;;;10.78;63.74
36222;BME280;22266;52.340;4.962;2023-04-15T07:21:02;101299.00;;;10.82;63.68
36222;BME280;22266;52.340;4.962;2023-04-15T07:23:29;101310.00;;;10.73;63.90
36222;BME280;22266;52.340;4.962;2023-04-15T07:25:55;101309.63;;;10.61;65.03
36222;BME280;22266;52.340;4.962;2023-04-15T07:28:22;101324.38;;;10.65;65.21
36222;BME280;22266;52.340;4.962;2023-04-15T07:30:49;101328.03;;;10.72;65.04
36222;BME280;22266;52.340;4.962;2023-04-15T07:33:15;101322.66;;;10.72;64.27
36222;BME280;22266;52.340;4.962;2023-04-15T07:35:42;101333.78;;;10.69;64.76
36222;BME280;22266;52.340;4.962;2023-04-15T07:38:08;101329.13;;;10.63;64.59
36222;BME280;22266;52.340;4.962;2023-04-15T07:40:35;101335.09;;;10.73;64.84
36222;BME280;22266;52.340;4.962;2023-04-15T07:43:01;101340.94;;;10.77;64.17
36222;BME280;22266;52.340;4.962;2023-04-15T07:45:28;101352.78;;;10.91;65.47
36222;BME280;22266;52.340;4.962;2023-04-15T07:47:55;101346.28;;;11.00;64.37
36222;BME280;22266;52.340;4.962;2023-04-15T07:50:22;101360.94;;;10.97;63.75
36222;BME280;22266;52.340;4.962;2023-04-15T07:52:49;101358.78;;;10.93;63.04
36222;BME280;22266;52.340;4.962;2023-04-15T07:55:16;101350.25;;;10.89;62.87
36222;BME280;22266;52.340;4.962;2023-04-15T07:57:45;101365.50;;;10.97;62.84
36222;BME280;22266;52.340;4.962;2023-04-15T08:00:13;101368.75;;;11.07;63.21
36222;BME280;22266;52.340;4.962;2023-04-15T08:02:40;101373.22;;;11.14;63.11
36222;BME280;22266;52.340;4.962;2023-04-15T08:05:08;101377.69;;;11.22;63.25
36222;BME280;22266;52.340;4.962;2023-04-15T08:07:36;101379.63;;;11.28;62.56
36222;BME280;22266;52.340;4.962;2023-04-15T08:10:03;101386.88;;;11.28;61.97
36222;BME280;22266;52.340;4.962;2023-04-15T08:12:30;101392.19;;;11.21;60.92
36222;BME280;22266;52.340;4.962;2023-04-15T08:14:57;101397.94;;;11.03;61.26
36222;BME280;22266;52.340;4.962;2023-04-15T08:17:24;101388.25;;;10.94;62.40
36222;BME280;22266;52.340;4.962;2023-04-15T08:19:50;101402.56;;;11.09;62.03
36222;BME280;22266;52.340;4.962;2023-04-15T08:22:17;101406.69;;;11.20;60.81
36222;BME280;22266;52.340;4.962;2023-04-15T08:24:45;101420.97;;;11.21;61.33
36222;BME280;22266;52.340;4.962;2023-04-15T08:27:12;101409.84;;;11.24;61.78
36222;BME280;22266;52.340;4.962;2023-04-15T08:29:39;101412.09;;;11.35;61.48
36222;BME280;22266;52.340;4.962;2023-04-15T08:32:05;101412.66;;;11.30;60.38
36222;BME280;22266;52.340;4.962;2023-04-15T08:34:32;101414.38;;;11.38;61.02
36222;BME280;22266;52.340;4.962;2023-04-15T08:37:00;101422.59;;;11.45;60.14
36222;BME280;22266;52.340;4.962;2023-04-15T08:39:26;101420.34;;;11.48;59.46
36222;BME280;22266;52.340;4.962;2023-04-15T08:42:01;101422.84;;;11.50;60.47
36222;BME280;22266;52.340;4.962;2023-04-15T08:44:29;101439.59;;;11.60;60.41
36222;BME280;22266;52.340;4.962;2023-04-15T08:47:00;101445.91;;;11.52;60.54
36222;BME280;22266;52.340;4.962;2023-04-15T08:49:28;101437.47;;;11.55;61.27
36222;BME280;22266;52.340;4.962;2023-04-15T08:51:57;101445.25;;;11.65;60.37
36222;BME280;22266;52.340;4.962;2023-04-15T08:54:25;101442.19;;;11.68;60.15
36222;BME280;22266;52.340;4.962;2023-04-15T08:56:52;101436.25;;;11.73;60.84
36222;BME280;22266;52.340;4.962;2023-04-15T08:59:20;101453.56;;;11.93;60.67
36222;BME280;22266;52.340;4.962;2023-04-15T09:01:48;101451.09;;;12.13;59.49
36222;BME280;22266;52.340;4.962;2023-04-15T09:04:16;101452.13;;;12.12;58.98
36222;BME280;22266;52.340;4.962;2023-04-15T09:06:43;101457.44;;;12.05;58.91
36222;BME280;22266;52.340;4.962;2023-04-15T09:09:11;101464.44;;;12.00;59.42
36222;BME280;22266;52.340;4.962;2023-04-15T09:11:39;101468.81;;;12.01;59.70
36222;BME280;22266;52.340;4.962;2023-04-15T09:14:06;101470.72;;;12.07;60.21
36222;BME280;22266;52.340;4.962;2023-04-15T09:16:58;101474.00;;;12.17;60.78
36222;BME280;22266;52.340;4.962;2023-04-15T09:19:26;101478.38;;;12.40;59.47
36222;BME280;22266;52.340;4.962;2023-04-15T09:21:54;101477.72;;;12.52;58.70
36222;BME280;22266;52.340;4.962;2023-04-15T09:24:25;101490.16;;;12.68;59.17
36222;BME280;22266;52.340;4.962;2023-04-15T09:26:59;101482.78;;;12.83;58.43
36222;BME280;22266;52.340;4.962;2023-04-15T09:29:26;101484.59;;;12.98;57.48
36222;BME280;22266;52.340;4.962;2023-04-15T09:31:53;101497.19;;;13.12;57.33
36222;BME280;22266;52.340;4.962;2023-04-15T09:34:19;101503.50;;;13.19;57.60
36222;BME280;22266;52.340;4.962;2023-04-15T09:39:16;101502.94;;;13.52;56.36
36222;BME280;22266;52.340;4.962;2023-04-15T09:41:42;101503.63;;;13.32;54.94
36222;BME280;22266;52.340;4.962;2023-04-15T09:44:25;101509.28;;;13.16;55.95
36222;BME280;22266;52.340;4.962;2023-04-15T09:46:52;101520.75;;;13.18;55.91
36222;BME280;22266;52.340;4.962;2023-04-15T09:49:18;101528.03;;;13.18;55.52
36222;BME280;22266;52.340;4.962;2023-04-15T09:51:46;101512.97;;;13.08;56.01
36222;BME280;22266;52.340;4.962;2023-04-15T09:54:37;101530.72;;;13.18;55.09
36222;BME280;22266;52.340;4.962;2023-04-15T09:57:07;101516.97;;;13.13;55.38
36222;BME280;22266;52.340;4.962;2023-04-15T09:59:35;101533.19;;;13.13;55.55
36222;BME280;22266;52.340;4.962;2023-04-15T10:02:03;101533.06;;;13.21;55.71
36222;BME280;22266;52.340;4.962;2023-04-15T10:04:35;101539.03;;;13.38;56.36
36222;BME280;22266;52.340;4.962;2023-04-15T10:07:05;101533.94;;;13.49;54.82
36222;BME280;22266;52.340;4.962;2023-04-15T10:09:34;101537.78;;;13.40;54.58
36222;BME280;22266;52.340;4.962;2023-04-15T10:12:04;101543.16;;;13.33;54.96
36222;BME280;22266;52.340;4.962;2023-04-15T10:14:35;101537.75;;;13.33;53.80
36222;BME280;22266;52.340;4.962;2023-04-15T10:17:04;101544.59;;;13.29;54.05
36222;BME280;22266;52.340;4.962;2023-04-15T10:19:32;101543.66;;;13.22;54.53
36222;BME280;22266;52.340;4.962;2023-04-15T10:22:02;101543.75;;;13.29;55.26
36222;BME280;22266;52.340;4.962;2023-04-15T10:24:30;101550.94;;;13.43;55.34
36222;BME280;22266;52.340;4.962;2023-04-15T10:26:59;101546.50;;;13.64;55.18
36222;BME280;22266;52.340;4.962;2023-04-15T10:29:25;101551.38;;;13.75;54.95
36222;BME280;22266;52.340;4.962;2023-04-15T10:31:56;101549.28;;;13.70;54.85
36222;BME280;22266;52.340;4.962;2023-04-15T10:34:24;101560.25;;;13.62;55.05
36222;BME280;22266;52.340;4.962;2023-04-15T10:36:57;101564.91;;;13.47;54.19
36222;BME280;22266;52.340;4.962;2023-04-15T10:39:49;101559.41;;;13.33;54.18
36222;BME280;22266;52.340;4.962;2023-04-15T10:42:17;101565.56;;;13.27;55.22
36222;BME280;22266;52.340;4.962;2023-04-15T10:44:49;101570.13;;;13.27;55.35
36222;BME280;22266;52.340;4.962;2023-04-15T10:47:20;101573.06;;;13.25;54.29
36222;BME280;22266;52.340;4.962;2023-04-15T10:49:49;101564.00;;;13.18;54.21
36222;BME280;22266;52.340;4.962;2023-04-15T10:52:20;101572.56;;;13.22;54.46
36222;BME280;22266;52.340;4.962;2023-04-15T10:54:48;101575.16;;;13.30;54.14
36222;BME280;22266;52.340;4.962;2023-04-15T10:57:21;101570.84;;;13.35;54.17
36222;BME280;22266;52.340;4.962;2023-04-15T11:05:13;101573.78;;;13.41;54.89
36222;BME280;22266;52.340;4.962;2023-04-15T11:12:39;101585.25;;;13.21;55.74
36222;BME280;22266;52.340;4.962;2023-04-15T11:15:26;101599.91;;;13.12;55.70
36222;BME280;22266;52.340;4.962;2023-04-15T11:18:07;101592.84;;;13.11;55.56
36222;BME280;22266;52.340;4.962;2023-04-15T11:20:34;101599.53;;;13.15;55.76
36222;BME280;22266;52.340;4.962;2023-04-15T11:23:01;101595.56;;;13.32;55.25
36222;BME280;22266;52.340;4.962;2023-04-15T11:25:41;101602.97;;;13.45;54.76
36222;BME280;22266;52.340;4.962;2023-04-15T11:28:08;101608.09;;;13.40;54.20
36222;BME280;22266;52.340;4.962;2023-04-15T11:30:37;101613.06;;;13.36;54.41
36222;BME280;22266;52.340;4.962;2023-04-15T11:33:05;101611.97;;;13.52;54.47
36222;BME280;22266;52.340;4.962;2023-04-15T11:35:32;101623.25;;;13.56;53.92
36222;BME280;22266;52.340;4.962;2023-04-15T11:38:04;101623.47;;;13.61;53.83
36222;BME280;22266;52.340;4.962;2023-04-15T11:40:32;101621.59;;;13.83;53.98
36222;BME280;22266;52.340;4.962;2023-04-15T11:43:10;101630.25;;;14.00;52.84
36222;BME280;22266;52.340;4.962;2023-04-15T11:45:46;101643.47;;;14.16;53.24
36222;BME280;22266;52.340;4.962;2023-04-15T11:48:13;101629.09;;;14.16;52.00
36222;BME280;22266;52.340;4.962;2023-04-15T11:50:40;101642.59;;;14.09;51.22
36222;BME280;22266;52.340;4.962;2023-04-15T11:53:08;101635.44;;;14.01;52.02
36222;BME280;22266;52.340;4.962;2023-04-15T11:58:21;101632.03;;;13.86;51.97
36222;BME280;22266;52.340;4.962;2023-04-15T12:00:58;101627.53;;;14.00;52.56
36222;BME280;22266;52.340;4.962;2023-04-15T12:03:30;101633.94;;;14.20;51.81
36222;BME280;22266;52.340;4.962;2023-04-15T12:11:39;101637.28;;;14.22;51.25
36222;BME280;22266;52.340;4.962;2023-04-15T12:14:07;101647.16;;;14.37;50.17
36222;BME280;22266;52.340;4.962;2023-04-15T12:16:35;101641.84;;;14.22;49.32
36222;BME280;22266;52.340;4.962;2023-04-15T12:19:16;101648.16;;;14.01;50.52
36222;BME280;22266;52.340;4.962;2023-04-15T12:21:46;101654.69;;;13.85;50.85
36222;BME280;22266;52.340;4.962;2023-04-15T12:24:13;101656.97;;;13.81;51.57
36222;BME280;22266;52.340;4.962;2023-04-15T12:27:03;101655.16;;;13.89;50.75
36222;BME280;22266;52.340;4.962;2023-04-15T12:29:31;101658.50;;;13.91;50.85
36222;BME280;22266;52.340;4.962;2023-04-15T12:32:07;101668.22;;;14.06;51.00
36222;BME280;22266;52.340;4.962;2023-04-15T12:34:36;101673.25;;;14.16;50.22
36222;BME280;22266;52.340;4.962;2023-04-15T12:37:06;101675.28;;;14.07;50.43
36222;BME280;22266;52.340;4.962;2023-04-15T12:39:38;101674.69;;;14.12;50.37
36222;BME280;22266;52.340;4.962;2023-04-15T12:42:06;101677.47;;;14.25;50.49
36222;BME280;22266;52.340;4.962;2023-04-15T12:44:34;101694.34;;;14.49;50.38
36222;BME280;22266;52.340;4.962;2023-04-15T12:47:01;101691.06;;;14.60;50.14
36222;BME280;22266;52.340;4.962;2023-04-15T12:49:29;101685.25;;;14.63;50.41
36222;BME280;22266;52.340;4.962;2023-04-15T12:51:57;101693.22;;;14.71;50.85
36222;BME280;22266;52.340;4.962;2023-04-15T12:54:25;101692.75;;;14.61;50.44
36222;BME280;22266;52.340;4.962;2023-04-15T12:56:53;101694.22;;;14.35;51.44
36222;BME280;22266;52.340;4.962;2023-04-15T12:59:20;101694.31;;;14.21;52.50
36222;BME280;22266;52.340;4.962;2023-04-15T13:01:47;101703.44;;;14.13;52.57
36222;BME280;22266;52.340;4.962;2023-04-15T13:04:15;101696.56;;;14.10;48.94
36222;BME280;22266;52.340;4.962;2023-04-15T13:06:42;101696.13;;;14.07;49.53
36222;BME280;22266;52.340;4.962;2023-04-15T13:09:09;101706.03;;;14.00;49.83
36222;BME280;22266;52.340;4.962;2023-04-15T13:11:36;101696.94;;;14.07;50.48
36222;BME280;22266;52.340;4.962;2023-04-15T13:14:05;101702.34;;;14.07;51.42
36222;BME280;22266;52.340;4.962;2023-04-15T13:16:33;101709.34;;;13.95;50.98
36222;BME280;22266;52.340;4.962;2023-04-15T13:19:00;101716.56;;;13.67;52.33
36222;BME280;22266;52.340;4.962;2023-04-15T13:21:27;101719.31;;;13.52;53.67